Time;durP1;ratioP1;P1;durP2;ratioP2;P2;SDS_P1;SDS_P2;PMS_P1;PMS_P2;Temp;Humidity;BMP_temperature;BMP_pressure;BME280_temperature;BME280_humidity;BME280_pressure;Samples;Min_cycle;Max_cycle;Signal;HPM_P1;HPM_P2
2021/11/21 00:00:39;;;;;;;13.77;5.28;;;9.00;99.90;;;7.51;100.00;100795.31;4975730;28;20044;-79
2021/11/21 00:03:05;;;;;;;11.98;5.88;;;9.00;99.90;;;7.54;100.00;100907.06;4988191;28;20425;-78
2021/11/21 00:05:31;;;;;;;15.77;5.32;;;9.00;99.90;;;7.55;100.00;100887.81;4950897;28;20034;-78
2021/11/21 00:08:00;;;;;;;13.95;6.60;;;9.00;99.90;;;7.56;100.00;100900.88;4989101;28;20497;-79
2021/11/21 00:10:29;;;;;;;14.00;6.65;;;9.00;99.90;;;7.54;100.00;100900.06;5017517;28;20033;-79
2021/11/21 00:12:55;;;;;;;11.20;6.03;;;9.00;99.90;;;7.54;100.00;100949.84;4959822;28;20109;-78
2021/11/21 00:15:21;;;;;;;14.43;5.93;;;9.00;99.90;;;7.55;100.00;100455.47;4958541;28;20067;-79
2021/11/21 00:17:47;;;;;;;12.95;7.00;;;9.00;99.90;;;7.55;100.00;100403.91;4934200;28;20095;-78
2021/11/21 00:20:16;;;;;;;14.05;6.85;;;9.00;99.90;;;7.57;100.00;100348.81;4972028;28;20043;-78
2021/11/21 00:22:46;;;;;;;14.98;7.18;;;9.00;99.90;;;7.61;100.00;100491.91;4954417;28;20436;-79
2021/11/21 00:25:13;;;;;;;11.32;6.07;;;9.00;99.90;;;7.60;100.00;100543.47;4998286;28;20040;-79
2021/11/21 00:27:39;;;;;;;12.48;6.40;;;9.10;99.90;;;7.62;100.00;100543.41;4989199;28;20514;-78
2021/11/21 00:30:06;;;;;;;15.32;6.72;;;9.10;99.90;;;7.60;100.00;100534.72;5000035;28;20041;-79
2021/11/21 00:32:32;;;;;;;17.08;6.50;;;9.10;99.90;;;7.64;100.00;100509.28;4963498;28;20041;-79
2021/11/21 00:34:58;;;;;;;20.05;6.97;;;9.10;99.90;;;7.64;100.00;100573.03;4957327;28;20098;-79
2021/11/21 00:37:26;;;;;;;12.52;5.97;;;9.10;99.90;;;7.69;100.00;100601.66;4942809;28;20118;-79
2021/11/21 00:39:52;;;;;;;12.35;6.68;;;9.10;99.90;;;7.63;100.00;100466.50;4950410;28;20037;-79
2021/11/21 00:42:18;;;;;;;11.80;5.65;;;9.10;99.90;;;7.63;100.00;100702.34;4980854;28;20980;-77
2021/11/21 00:44:50;;;;;;;13.85;6.07;;;9.10;99.90;;;7.62;100.00;100700.63;4939911;28;20096;-78
2021/11/21 00:47:18;;;;;;;13.05;6.25;;;9.10;99.90;;;7.63;100.00;100701.50;4942529;28;20072;-78
2021/11/21 00:49:44;;;;;;;12.60;6.20;;;9.10;99.90;;;7.62;100.00;100716.34;4950643;28;20510;-80
2021/11/21 00:52:11;;;;;;;13.18;6.05;;;9.10;99.90;;;7.60;100.00;100807.25;4946542;28;20038;-81
2021/11/21 00:54:53;;;;;;;10.43;5.88;;;9.10;99.90;;;7.57;100.00;100768.91;4965147;28;20040;-80
2021/11/21 00:57:23;;;;;;;15.57;6.20;;;9.00;99.90;;;7.57;100.00;100782.03;4948392;28;20031;-80
2021/11/21 00:59:49;;;;;;;12.85;5.53;;;9.00;99.90;;;7.59;100.00;100814.28;4972707;28;20025;-80
2021/11/21 01:02:16;;;;;;;9.88;4.95;;;9.00;99.90;;;7.57;100.00;100815.25;4935485;28;20466;-79
2021/11/21 01:04:43;;;;;;;10.95;4.90;;;9.00;99.90;;;7.57;100.00;100829.19;4978272;28;20053;-79
2021/11/21 01:07:12;;;;;;;10.48;4.57;;;9.00;99.90;;;7.55;100.00;100883.41;4953695;28;20048;-79
2021/11/21 01:09:40;;;;;;;10.07;4.82;;;9.00;99.90;;;7.61;100.00;100843.06;4982344;28;20158;-79
2021/11/21 01:12:08;;;;;;;11.00;4.43;;;9.10;99.90;;;7.56;100.00;100837.97;4964406;28;20080;-80
2021/11/21 01:14:35;;;;;;;10.23;4.30;;;9.00;99.90;;;7.54;100.00;100858.13;4933682;28;20036;-80
2021/11/21 01:17:04;;;;;;;6.40;3.33;;;9.00;99.90;;;7.51;100.00;100852.13;4989016;28;20030;-79
2021/11/21 01:19:30;;;;;;;6.18;3.35;;;9.00;99.90;;;7.49;100.00;100867.03;4965843;28;20103;-79
2021/11/21 01:21:56;;;;;;;9.15;4.10;;;8.90;99.90;;;7.48;100.00;100921.19;4979407;28;20033;-80
2021/11/21 01:24:22;;;;;;;10.57;4.05;;;8.90;99.90;;;7.49;100.00;100919.44;4955535;28;21039;-82
2021/11/21 01:26:48;;;;;;;7.88;3.50;;;9.00;99.90;;;7.52;100.00;100924.59;5008590;28;20029;-81
2021/11/21 01:29:14;;;;;;;5.07;2.90;;;9.00;99.90;;;7.54;100.00;100964.72;4983128;28;20059;-80
2021/11/21 01:31:47;;;;;;;6.60;3.28;;;9.10;99.90;;;7.56;100.00;100112.19;4994744;28;20030;-80
2021/11/21 01:34:15;;;;;;;5.60;3.03;;;9.00;99.90;;;7.58;100.00;101331.47;4950290;28;20045;-80
2021/11/21 01:36:42;;;;;;;8.85;3.10;;;9.00;99.90;;;7.56;100.00;100295.59;4980009;28;20461;-78
2021/11/21 01:39:08;;;;;;;5.88;3.47;;;9.00;99.90;;;7.60;100.00;100537.34;4947812;28;20034;-79
2021/11/21 01:41:35;;;;;;;5.35;2.80;;;9.00;99.90;;;7.60;100.00;100645.66;4967067;28;20030;-80
2021/11/21 01:44:02;;;;;;;4.80;2.90;;;9.10;99.90;;;7.61;100.00;101296.44;4967869;28;20037;-79
2021/11/21 01:46:38;;;;;;;4.35;2.65;;;9.10;99.90;;;7.60;100.00;100755.72;4965580;28;20078;-79
2021/11/21 01:49:07;;;;;;;6.65;3.20;;;9.10;99.90;;;7.60;100.00;100428.19;4990477;28;20026;-80
2021/11/21 01:51:33;;;;;;;5.75;3.30;;;9.10;99.90;;;7.62;100.00;100898.94;4951935;28;20030;-80
2021/11/21 01:53:59;;;;;;;5.25;2.65;;;9.10;99.90;;;7.62;100.00;100419.38;4968060;28;20037;-79
2021/11/21 01:56:26;;;;;;;5.57;2.92;;;9.10;99.90;;;7.63;100.00;100237.69;4980577;28;20389;-79
2021/11/21 01:58:57;;;;;;;5.00;2.80;;;9.00;99.90;;;7.60;100.00;100174.00;4954382;28;20394;-80
2021/11/21 02:01:25;;;;;;;10.95;3.28;;;9.00;99.90;;;7.56;100.00;100179.47;4973515;28;20031;-79
2021/11/21 02:03:51;;;;;;;8.85;3.05;;;9.00;99.90;;;7.55;100.00;100405.69;4966317;28;20053;-80
2021/11/21 02:06:18;;;;;;;7.40;3.05;;;9.00;99.90;;;7.55;100.00;100325.31;4985003;28;20024;-79
2021/11/21 02:08:51;;;;;;;7.40;3.45;;;9.10;99.90;;;7.58;100.00;100269.28;4953056;28;21975;-78
2021/11/21 02:11:18;;;;;;;8.85;3.40;;;9.00;99.90;;;7.60;100.00;100310.25;4950821;28;20034;-79
2021/11/21 02:13:47;;;;;;;7.80;3.63;;;9.10;99.90;;;7.59;100.00;100312.94;4931425;28;20060;-79
2021/11/21 02:16:17;;;;;;;5.18;3.22;;;9.10;99.90;;;7.59;100.00;100865.84;4982823;28;21159;-79
2021/11/21 02:18:47;;;;;;;5.10;3.08;;;9.10;99.90;;;7.60;100.00;100090.16;4950164;28;20029;-81
2021/11/21 02:21:16;;;;;;;6.00;2.95;;;9.10;99.90;;;7.62;100.00;100254.31;4997764;28;20030;-80
2021/11/21 02:23:46;;;;;;;6.97;3.38;;;9.00;99.90;;;7.60;100.00;100137.34;4959959;28;20026;-80
2021/11/21 02:26:15;;;;;;;7.25;2.85;;;9.10;99.90;;;7.62;100.00;100099.72;4965888;28;20488;-81
2021/11/21 02:28:41;;;;;;;5.40;2.85;;;9.10;99.90;;;7.60;100.00;100194.09;4944651;28;20021;-80
2021/11/21 02:31:11;;;;;;;9.30;3.22;;;9.10;99.90;;;7.60;100.00;100100.66;4999373;28;20046;-81
2021/11/21 02:33:40;;;;;;;6.32;2.90;;;9.10;99.90;;;7.59;100.00;100072.72;4953336;28;20023;-81
2021/11/21 02:36:08;;;;;;;5.20;3.13;;;9.10;99.90;;;7.58;100.00;100085.88;4920580;28;20050;-79
2021/11/21 02:38:36;;;;;;;9.50;3.50;;;9.00;99.90;;;7.58;100.00;100101.59;4981175;28;20474;-79
2021/11/21 02:41:08;;;;;;;11.65;4.30;;;9.00;99.90;;;7.59;100.00;100075.34;4994875;28;20044;-79
2021/11/21 02:43:36;;;;;;;9.65;3.67;;;9.10;99.90;;;7.58;100.00;100076.28;4970489;28;20044;-79
2021/11/21 02:46:03;;;;;;;7.20;4.40;;;9.00;99.90;;;7.57;100.00;100116.50;4992320;28;20083;-79
2021/11/21 02:48:35;;;;;;;9.52;4.05;;;9.00;99.90;;;7.54;100.00;100132.34;4968306;28;20030;-78
2021/11/21 02:51:07;;;;;;;6.93;3.72;;;9.00;99.90;;;7.57;100.00;100126.13;4933568;28;20041;-78
2021/11/21 02:53:39;;;;;;;8.40;3.90;;;9.00;99.90;;;7.62;100.00;100112.81;4977612;28;20565;-79
2021/11/21 02:56:10;;;;;;;8.40;3.75;;;9.10;99.90;;;7.60;100.00;100110.25;4967986;28;20201;-79
2021/11/21 02:58:36;;;;;;;7.38;3.55;;;9.00;99.90;;;7.59;100.00;100112.03;4944407;28;20048;-79
2021/11/21 03:01:12;;;;;;;8.70;3.60;;;9.10;99.90;;;7.59;100.00;100143.47;4968504;28;20045;-79
2021/11/21 03:03:39;;;;;;;7.78;4.03;;;9.00;99.90;;;7.62;100.00;100128.53;4983488;28;20109;-79
2021/11/21 03:06:05;;;;;;;6.40;3.35;;;9.10;99.90;;;7.60;100.00;100125.97;4953283;28;20801;-79
2021/11/21 03:08:34;;;;;;;5.45;3.22;;;9.10;99.90;;;7.58;100.00;100139.16;4968446;28;20042;-79
2021/11/21 03:11:31;;;;;;;7.70;3.13;;;9.10;99.90;;;7.60;100.00;100173.13;4950722;28;20044;-79
2021/11/21 03:13:59;;;;;;;10.77;3.88;;;9.10;99.90;;;7.58;100.00;100118.19;4950350;28;20034;-79
2021/11/21 03:16:26;;;;;;;7.57;3.22;;;9.10;99.90;;;7.57;100.00;100120.88;4989582;28;20080;-79
2021/11/21 03:18:55;;;;;;;12.30;3.00;;;9.00;99.90;;;7.56;100.00;100116.56;4991034;28;20034;-79
2021/11/21 03:21:22;;;;;;;7.35;3.72;;;9.00;99.90;;;7.56;100.00;100119.19;4944422;28;20048;-79
2021/11/21 03:23:49;;;;;;;7.03;3.33;;;9.00;99.90;;;7.55;100.00;100115.69;4977394;28;20024;-80
2021/11/21 03:26:16;;;;;;;8.45;3.38;;;9.00;99.90;;;7.57;100.00;100120.88;4974688;28;20021;-78
2021/11/21 03:28:42;;;;;;;11.25;3.33;;;9.00;99.90;;;7.57;100.00;100144.47;4940725;28;20017;-78
2021/11/21 03:31:08;;;;;;;8.55;3.28;;;9.00;99.90;;;7.54;100.00;100129.72;4936386;28;20026;-78
2021/11/21 03:33:42;;;;;;;4.25;2.88;;;9.00;99.90;;;7.53;100.00;100114.91;4992654;28;20494;-79
2021/11/21 03:36:08;;;;;;;5.57;3.15;;;9.00;99.90;;;7.53;100.00;100116.69;4963220;28;20061;-79
2021/11/21 03:38:34;;;;;;;3.80;2.85;;;9.00;99.90;;;7.56;100.00;100113.97;4970097;28;20026;-79
2021/11/21 03:41:03;;;;;;;8.25;2.97;;;9.00;99.90;;;7.54;100.00;100097.44;4972051;28;20378;-79
2021/11/21 03:43:30;;;;;;;7.72;3.00;;;9.00;99.90;;;7.52;100.00;100094.03;4948427;28;20378;-79
2021/11/21 03:45:56;;;;;;;4.63;2.60;;;9.00;99.90;;;7.53;100.00;100093.13;4974950;28;20054;-78
2021/11/21 03:48:22;;;;;;;5.05;2.63;;;9.00;99.90;;;7.50;100.00;100088.03;4954723;28;20121;-79
2021/11/21 03:50:48;;;;;;;5.20;3.05;;;9.00;99.90;;;7.46;100.00;100096.94;4962191;28;20051;-79
2021/11/21 03:53:17;;;;;;;6.72;2.80;;;8.90;99.90;;;7.41;100.00;100110.22;4898397;28;20517;-79
2021/11/21 03:55:45;;;;;;;5.20;2.72;;;8.90;99.90;;;7.39;100.00;100109.44;4972469;28;20030;-79
2021/11/21 03:58:12;;;;;;;7.53;3.20;;;8.90;99.90;;;7.40;100.00;100116.38;4991601;28;20570;-79
2021/11/21 04:00:40;;;;;;;6.85;2.92;;;8.80;99.90;;;7.39;100.00;100101.59;4956162;28;20033;-79
2021/11/21 04:03:06;;;;;;;5.13;2.60;;;8.80;99.90;;;7.33;100.00;100102.69;4956598;28;20061;-78
2021/11/21 04:05:32;;;;;;;7.72;2.42;;;8.80;99.90;;;7.31;100.00;100099.28;4993603;28;20560;-78
2021/11/21 04:08:01;;;;;;;6.70;2.47;;;8.70;99.90;;;7.28;100.00;100109.91;4955006;28;20025;-79
2021/11/21 04:10:27;;;;;;;5.25;2.72;;;8.70;99.90;;;7.24;100.00;100110.94;4946368;28;20573;-78
2021/11/21 04:12:53;;;;;;;9.18;2.90;;;8.70;99.90;;;7.18;100.00;100103.34;4953562;28;20037;-79
2021/11/21 04:15:19;;;;;;;6.18;2.88;;;8.70;99.90;;;7.18;100.00;100119.06;4976593;28;20068;-79
2021/11/21 04:17:45;;;;;;;3.78;2.45;;;8.60;99.90;;;7.19;100.00;100129.47;4968162;28;20034;-79
2021/11/21 04:20:13;;;;;;;6.32;2.67;;;8.60;99.90;;;7.14;100.00;100122.72;4957204;28;20041;-78
2021/11/21 04:22:42;;;;;;;5.35;3.00;;;8.60;99.90;;;7.15;100.00;100122.66;4963168;28;20106;-79
2021/11/21 04:25:10;;;;;;;3.75;2.67;;;8.60;99.90;;;7.11;100.00;100110.63;4946436;28;20038;-79
2021/11/21 04:27:36;;;;;;;5.82;2.97;;;8.60;99.90;;;7.05;100.00;100118.72;4954215;28;20093;-79
2021/11/21 04:30:08;;;;;;;7.15;3.05;;;8.50;99.90;;;7.03;100.00;100124.94;4950892;28;20087;-79
2021/11/21 04:32:37;;;;;;;6.45;3.30;;;8.50;99.90;;;7.00;100.00;100115.47;4974065;28;20018;-78
2021/11/21 04:35:09;;;;;;;6.10;3.08;;;8.50;99.90;;;6.95;100.00;100114.78;4990012;28;20569;-78
2021/11/21 04:37:35;;;;;;;5.93;2.97;;;9.30;99.90;;;6.94;100.00;100106.09;4933391;28;20498;-79
2021/11/21 04:40:05;;;;;;;10.05;3.40;;;8.40;99.90;;;6.95;100.00;100096.44;4960134;28;20042;-79
2021/11/21 04:42:32;;;;;;;9.23;3.70;;;8.40;99.90;;;6.90;100.00;100104.50;4993234;28;20030;-79
2021/11/21 04:44:58;;;;;;;12.02;3.42;;;8.40;99.90;;;6.89;100.00;100101.94;4974178;28;20048;-79
2021/11/21 04:47:24;;;;;;;8.30;3.63;;;8.40;99.90;;;6.91;100.00;100094.88;4977029;28;20022;-78
2021/11/21 04:49:52;;;;;;;12.68;3.75;;;8.40;99.90;;;6.94;100.00;100106.09;5002806;28;20395;-79
2021/11/21 04:52:19;;;;;;;8.48;3.78;;;8.40;99.90;;;6.93;100.00;100098.28;4989298;28;20022;-79
2021/11/21 04:54:46;;;;;;;10.20;3.75;;;8.40;99.90;;;6.94;100.00;100106.09;4963224;28;20030;-78
2021/11/21 04:57:14;;;;;;;9.38;3.75;;;8.40;99.90;;;6.93;100.00;100108.75;4977938;28;20033;-79
2021/11/21 04:59:41;;;;;;;8.68;3.95;;;8.40;99.90;;;6.93;100.00;100099.16;4942375;28;20041;-79
2021/11/21 05:02:07;;;;;;;8.93;3.60;;;8.40;99.90;;;6.94;100.00;100094.78;4969332;28;20105;-79
2021/11/21 05:04:34;;;;;;;8.30;3.90;;;8.50;99.90;;;7.00;100.00;100104.97;4963066;28;20054;-80
2021/11/21 05:07:00;;;;;;;8.48;4.43;;;8.50;99.90;;;7.01;100.00;100105.84;4967497;28;20555;-79
2021/11/21 05:09:26;;;;;;;11.73;4.22;;;8.50;99.90;;;6.99;100.00;100093.63;4951058;28;20087;-78
2021/11/21 05:11:52;;;;;;;10.52;4.38;;;8.50;99.90;;;7.01;100.00;100092.75;4945638;28;20529;-79
2021/11/21 05:14:20;;;;;;;7.30;4.07;;;8.50;99.90;;;7.03;100.00;100083.06;4974126;28;20049;-79
2021/11/21 05:16:49;;;;;;;8.25;3.72;;;8.50;99.90;;;7.02;100.00;100071.75;4973482;28;20033;-79
2021/11/21 05:19:16;;;;;;;7.93;4.32;;;8.50;99.90;;;7.04;100.00;100083.00;4975020;28;20049;-80
2021/11/21 05:21:42;;;;;;;6.93;3.53;;;8.60;99.90;;;7.08;100.00;100081.09;4942520;28;20538;-78
2021/11/21 05:24:08;;;;;;;9.20;4.10;;;8.60;99.90;;;7.06;100.00;100086.41;4993533;28;20041;-79
2021/11/21 05:26:34;;;;;;;5.45;3.65;;;8.60;99.90;;;7.14;100.00;100083.44;4958881;28;20461;-79
2021/11/21 05:29:01;;;;;;;8.68;3.88;;;8.60;99.90;;;7.15;100.00;100093.88;4963814;28;20036;-78
2021/11/21 05:31:29;;;;;;;6.00;3.42;;;8.60;99.90;;;7.18;100.00;100083.25;4966492;28;20482;-79
2021/11/21 05:33:55;;;;;;;9.55;3.78;;;8.60;99.90;;;7.11;100.00;100081.81;4957023;28;20038;-79
2021/11/21 05:36:21;;;;;;;9.18;4.28;;;8.60;99.90;;;7.10;100.00;100074.03;5005129;28;20030;-79
2021/11/21 05:38:47;;;;;;;10.35;4.13;;;8.60;99.90;;;7.17;100.00;100084.19;4963752;28;20037;-79
2021/11/21 05:41:13;;;;;;;7.15;3.80;;;8.60;99.90;;;7.09;100.00;100072.34;4954722;28;20034;-78
2021/11/21 05:43:39;;;;;;;6.53;3.83;;;7.20;99.90;;;7.13;100.00;100087.00;4955654;28;20046;-79
2021/11/21 05:46:09;;;;;;;7.32;3.50;;;8.60;99.90;;;7.12;100.00;100093.97;4941654;28;20050;-79
2021/11/21 05:48:35;;;;;;;7.82;4.10;;;8.60;99.90;;;7.06;100.00;100093.38;4952044;28;20109;-79
2021/11/21 05:51:01;;;;;;;6.88;3.45;;;8.60;99.90;;;7.04;100.00;100090.84;4974121;28;20136;-80
2021/11/21 05:53:26;;;;;;;6.15;3.85;;;8.60;99.90;;;7.05;100.00;100102.16;4986965;28;20487;-80
2021/11/21 05:55:53;;;;;;;9.07;4.15;;;8.50;99.90;;;7.01;100.00;100106.69;4958922;28;20531;-79
2021/11/21 05:58:23;;;;;;;8.45;4.15;;;8.50;99.90;;;7.04;100.00;100116.16;4976852;28;20096;-79
2021/11/21 06:00:52;;;;;;;10.40;3.78;;;8.50;99.90;;;7.04;100.00;100118.78;4962116;28;20040;-79
2021/11/21 06:03:18;;;;;;;6.95;4.10;;;8.60;99.90;;;7.04;100.00;100119.66;4938397;28;20049;-80
2021/11/21 06:05:44;;;;;;;6.40;3.90;;;8.60;99.90;;;7.06;100.00;100133.53;4961062;28;20514;-80
2021/11/21 06:08:10;;;;;;;8.60;3.78;;;8.60;99.90;;;7.02;100.00;100141.53;4993088;28;20276;-79
2021/11/21 06:10:36;;;;;;;9.52;3.83;;;;;;;6.98;100.00;100146.91;4985357;28;20061;-80
2021/11/21 06:13:12;;;;;;;5.75;2.10;;;8.50;99.90;;;6.79;100.00;100143.34;4990742;28;20512;-80
2021/11/21 06:15:38;;;;;;;3.55;0.63;;;;;;;6.56;100.00;100123.31;4980695;28;20045;-79
2021/11/21 06:18:05;;;;;;;1.55;0.47;;;8.10;99.90;;;6.48;100.00;100102.72;4961864;28;20509;-79
2021/11/21 06:20:33;;;;;;;0.13;0.13;;;8.10;99.90;;;6.45;100.00;100118.53;4978284;28;20025;-79
2021/11/21 06:23:00;;;;;;;0.52;0.40;;;7.50;99.90;;;6.42;100.00;100110.81;4945019;28;20375;-80
2021/11/21 06:25:26;;;;;;;2.03;0.50;;;8.00;99.90;;;6.48;100.00;100100.09;4984767;28;20062;-78
2021/11/21 06:27:52;;;;;;;3.15;0.40;;;8.00;99.90;;;6.38;100.00;100106.59;4978724;28;20506;-80
2021/11/21 06:30:18;;;;;;;7.40;0.88;;;8.00;99.90;;;6.48;100.00;100101.84;4981026;28;20036;-80
2021/11/21 06:32:44;;;;;;;2.65;0.55;;;8.00;99.90;;;6.49;100.00;100114.88;4980519;28;20033;-79
2021/11/21 06:35:13;;;;;;;2.72;0.30;;;8.10;99.90;;;6.54;100.00;100028.38;4965743;28;20184;-81
2021/11/21 06:37:42;;;;;;;2.47;0.65;;;8.10;99.90;;;6.60;100.00;100087.44;4985605;28;20459;-79
2021/11/21 06:40:09;;;;;;;4.78;0.70;;;8.10;99.90;;;6.59;100.00;100104.91;4995029;28;20034;-80
2021/11/21 06:42:35;;;;;;;4.70;0.60;;;8.20;99.90;;;6.61;100.00;100121.41;4944003;28;20121;-80
2021/11/21 06:45:04;;;;;;;3.50;0.77;;;8.20;99.90;;;6.62;100.00;100123.09;4965020;28;20050;-80
2021/11/21 06:47:30;;;;;;;6.97;0.52;;;8.20;99.90;;;6.59;100.00;100120.59;4972220;28;20098;-80
2021/11/21 06:50:00;;;;;;;2.70;0.65;;;8.20;99.90;;;6.50;100.00;100121.81;4974969;28;20036;-81
2021/11/21 06:52:29;;;;;;;7.47;0.45;;;8.10;99.90;;;6.47;100.00;100113.25;4951966;28;20466;-80
2021/11/21 06:54:58;;;;;;;5.85;0.70;;;8.00;99.90;;;6.40;100.00;100120.47;4996698;28;20478;-80
2021/11/21 06:57:24;;;;;;;8.23;0.80;;;7.90;99.90;;;6.37;100.00;100115.34;4952910;28;20867;-81
2021/11/21 06:59:50;;;;;;;6.30;0.65;;;7.90;99.90;;;6.30;100.00;100126.97;4980929;28;20034;-80
2021/11/21 07:02:16;;;;;;;6.65;0.60;;;;;;;6.28;100.00;100123.56;4949175;28;20524;-80
2021/11/21 07:04:42;;;;;;;1.88;0.35;;;7.90;99.90;;;6.26;100.00;100118.38;4980148;28;20050;-80
2021/11/21 07:07:11;;;;;;;4.80;0.40;;;7.80;99.90;;;6.26;100.00;100143.69;4990026;28;20119;-80
2021/11/21 07:09:40;;;;;;;3.50;0.40;;;7.80;99.90;;;6.28;100.00;100140.09;5001453;28;20018;-80
2021/11/21 07:12:07;;;;;;;8.25;0.80;;;7.90;99.90;;;6.31;100.00;100146.97;4928623;28;20501;-80
2021/11/21 07:14:33;;;;;;;1.95;0.38;;;7.80;99.90;;;6.23;100.00;100143.81;4961451;28;20044;-80
2021/11/21 07:16:59;;;;;;;2.17;0.50;;;7.80;99.90;;;6.31;100.00;100158.28;4952388;28;20044;-79
2021/11/21 07:19:33;;;;;;;2.38;0.60;;;7.90;99.90;;;6.31;100.00;100173.13;4978199;28;20029;-80
2021/11/21 07:21:59;;;;;;;13.18;0.70;;;7.90;99.90;;;6.32;100.00;100173.06;4941601;28;21498;-79
2021/11/21 07:24:25;;;;;;;8.73;0.80;;;7.90;99.90;;;6.44;100.00;100183.97;4961756;28;22539;-79
2021/11/21 07:26:51;;;;;;;5.18;0.60;;;8.00;99.90;;;6.43;100.00;100171.81;4963556;28;20028;-80
2021/11/21 07:29:17;;;;;;;2.53;0.65;;;8.10;99.90;;;6.48;100.00;100164.63;4960721;28;20116;-80
2021/11/21 07:31:46;;;;;;;5.93;0.85;;;8.00;99.90;;;6.47;100.00;100183.84;4987608;28;20037;-80
2021/11/21 07:34:11;;;;;;;6.50;0.73;;;8.10;99.90;;;6.52;100.00;100163.59;4987614;28;20178;-80
2021/11/21 07:36:37;;;;;;;10.88;1.27;;;8.10;99.90;;;6.54;100.00;100185.31;4976422;28;20038;-80
2021/11/21 07:39:04;;;;;;;13.57;0.88;;;;;;;6.60;100.00;100194.69;4969698;28;20040;-79
2021/11/21 07:41:30;;;;;;;6.90;1.20;;;8.20;99.90;;;6.62;100.00;100198.94;4991246;28;20529;-80
2021/11/21 07:43:56;;;;;;;6.03;0.82;;;8.20;99.90;;;6.68;100.00;100198.72;4971700;28;20042;-79
2021/11/21 07:46:25;;;;;;;5.28;1.35;;;8.30;99.90;;;6.70;100.00;100230.91;4928779;28;20033;-80
2021/11/21 07:48:51;;;;;;;4.20;1.08;;;8.30;99.90;;;6.77;100.00;100232.38;4964191;28;20118;-80
2021/11/21 07:51:17;;;;;;;8.13;1.13;;;8.40;99.90;;;6.84;100.00;100219.06;4975921;28;20030;-80
2021/11/21 07:53:43;;;;;;;12.57;1.45;;;8.50;99.90;;;6.94;100.00;100252.66;4968097;28;20054;-80
2021/11/21 07:56:09;;;;;;;5.00;1.02;;;8.50;99.90;;;6.98;100.00;100243.78;4958673;28;20023;-80
2021/11/21 07:58:35;;;;;;;4.20;1.08;;;8.60;99.90;;;7.02;100.00;100233.16;4943442;28;20078;-80
2021/11/21 08:01:06;;;;;;;6.35;1.08;;;8.60;99.90;;;7.05;100.00;100228.66;4962764;28;20033;-80
2021/11/21 08:03:32;;;;;;;7.47;1.05;;;8.60;99.90;;;7.07;100.00;100247.78;4949664;28;20029;-80
2021/11/21 08:05:58;;;;;;;6.03;1.20;;;8.70;99.90;;;7.09;100.00;100198.84;4929564;28;20136;-80
2021/11/21 08:08:24;;;;;;;5.25;1.13;;;8.60;99.90;;;7.12;100.00;100201.31;4987688;28;20030;-80
2021/11/21 08:10:50;;;;;;;7.63;1.48;;;8.70;99.90;;;7.21;100.00;100154.72;4958130;28;20037;-80
2021/11/21 08:13:18;;;;;;;4.05;1.40;;;8.80;99.90;;;7.18;100.00;100176.66;4962882;28;20127;-79
2021/11/21 08:15:47;;;;;;;4.43;1.13;;;;;;;7.20;100.00;100151.28;4946047;28;20120;-80
2021/11/21 08:18:16;;;;;;;9.93;0.93;;;8.80;99.90;;;7.22;100.00;100220.13;5000284;28;20050;-80
2021/11/21 08:20:43;;;;;;;5.38;1.30;;;8.70;99.90;;;7.17;100.00;100228.19;4954650;28;20372;-79
2021/11/21 08:23:17;;;;;;;4.55;1.27;;;8.80;99.90;;;7.15;100.00;100261.44;4943407;28;20052;-79
2021/11/21 08:25:44;;;;;;;5.35;1.02;;;8.70;99.90;;;7.14;100.00;100257.09;4966266;28;20128;-80
2021/11/21 08:28:10;;;;;;;8.00;1.58;;;8.70;99.90;;;7.06;100.00;100255.69;4965026;28;20028;-80
2021/11/21 08:30:39;;;;;;;6.03;1.13;;;8.70;99.90;;;7.07;100.00;100263.50;4951750;28;20420;-80
2021/11/21 08:33:10;;;;;;;9.68;1.27;;;8.70;99.90;;;7.08;100.00;100269.59;4970722;28;20072;-80
2021/11/21 08:35:38;;;;;;;10.00;1.00;;;8.70;99.90;;;7.10;100.00;100279.06;4927938;28;20021;-80
2021/11/21 08:38:05;;;;;;;8.27;1.20;;;8.70;99.90;;;7.11;100.00;100282.56;5002240;28;20017;-80
2021/11/21 08:40:34;;;;;;;10.52;1.45;;;8.70;99.90;;;7.11;100.00;100275.56;4987238;28;20021;-80
2021/11/21 08:43:02;;;;;;;13.23;1.30;;;8.70;99.90;;;7.14;100.00;100280.66;4961521;28;20037;-80
2021/11/21 08:45:31;;;;;;;10.85;1.27;;;8.70;99.90;;;7.16;100.00;100281.44;5044432;28;20453;-80
2021/11/21 08:48:00;;;;;;;9.63;1.33;;;8.70;99.90;;;7.17;100.00;100280.56;4950881;28;20037;-80
2021/11/21 08:50:29;;;;;;;11.07;1.30;;;8.80;99.90;;;7.21;100.00;100281.28;4974844;28;20079;-80
2021/11/21 08:52:55;;;;;;;8.68;1.20;;;8.80;99.90;;;7.26;100.00;100278.50;4962098;28;20045;-80
2021/11/21 08:55:22;;;;;;;5.43;0.60;;;8.90;99.90;;;7.28;100.00;100279.25;4961846;28;20026;-79
2021/11/21 08:57:48;;;;;;;9.55;1.25;;;8.80;99.90;;;7.26;100.00;100254.94;4991153;28;20056;-80
2021/11/21 09:00:18;;;;;;;8.52;1.15;;;8.80;99.90;;;7.25;100.00;100280.22;4942368;28;20036;-81
2021/11/21 09:02:45;;;;;;;5.20;0.88;;;8.80;99.90;;;7.27;100.00;100270.56;4976597;28;20030;-80
2021/11/21 09:05:23;;;;;;;13.50;1.13;;;8.90;99.90;;;7.36;100.00;100253.63;4942758;28;20048;-80
2021/11/21 09:07:50;;;;;;;8.50;0.90;;;9.00;99.90;;;7.44;100.00;100264.63;4949967;28;20030;-80
2021/11/21 09:10:25;;;;;;;12.80;1.73;;;9.00;99.90;;;7.49;100.00;100273.16;4980267;28;20085;-80
2021/11/21 09:12:57;;;;;;;7.88;1.15;;;9.00;99.90;;;7.47;100.00;100272.34;4952036;28;20231;-80
2021/11/21 09:15:28;;;;;;;13.05;1.27;;;9.00;99.90;;;7.38;100.00;100267.50;4955125;28;20111;-79
2021/11/21 09:17:54;;;;;;;8.45;0.93;;;9.00;99.90;;;7.51;100.00;100273.09;4937925;28;20462;-80
2021/11/21 09:20:25;;;;;;;4.85;1.00;;;9.00;99.90;;;7.51;100.00;100284.41;4939764;28;20512;-80
2021/11/21 09:23:12;;;;;;;9.15;1.25;;;9.10;99.90;;;7.62;100.00;100281.34;4949664;28;20051;-80
2021/11/21 09:25:40;;;;;;;;;;;9.10;99.90;;;7.50;100.00;100267.00;4955338;28;20041;-80
2021/11/21 09:28:08;;;;;;;14.63;0.85;;;9.00;99.90;;;7.50;100.00;100251.28;4966274;28;19917;-80
2021/11/21 09:30:36;;;;;;;8.68;1.05;;;9.00;99.90;;;7.50;100.00;100267.00;4973648;28;20037;-80
2021/11/21 09:33:04;;;;;;;9.32;1.25;;;9.00;99.90;;;7.51;100.00;100254.75;4930096;28;20038;-80
2021/11/21 09:35:32;;;;;;;7.28;0.82;;;9.10;99.90;;;7.56;100.00;100253.66;4941694;28;20041;-80
2021/11/21 09:38:07;;;;;;;16.67;1.42;;;9.00;99.90;;;7.53;100.00;100253.78;4947091;28;20048;-80
2021/11/21 09:40:33;;;;;;;11.90;0.90;;;9.00;99.90;;;7.47;100.00;100251.41;4939223;28;20020;-80
2021/11/21 09:43:22;;;;;;;8.20;1.17;;;9.00;99.90;;;7.44;100.00;100250.69;4959950;28;20102;-80
2021/11/21 09:45:59;;;;;;;8.30;1.30;;;9.00;99.90;;;7.38;100.00;100257.03;4919187;28;20521;-82
2021/11/21 09:48:33;;;;;;;7.45;1.25;;;9.00;99.90;;;7.51;100.00;100255.59;4946336;28;20052;-82
2021/11/21 09:51:10;;;;;;;9.57;1.38;;;9.20;99.90;;;7.73;100.00;100262.56;4935795;28;20048;-81
2021/11/21 09:53:37;;;;;;;14.60;1.20;;;9.50;99.90;;;8.00;100.00;100255.31;4953415;28;20037;-82
2021/11/21 09:56:05;;;;;;;23.88;1.30;;;9.60;99.90;;;8.07;100.00;100253.25;4964294;28;20034;-81
2021/11/21 09:58:51;;;;;;;8.25;0.90;;;9.60;99.90;;;8.04;100.00;100249.00;4939517;28;20096;-83
2021/11/21 10:01:56;;;;;;;6.95;1.20;;;9.60;99.90;;;8.09;100.00;100254.03;4976670;28;20497;-80
2021/11/21 10:04:47;;;;;;;9.60;0.88;;;9.60;99.90;;;7.86;100.00;100245.44;4973617;28;20527;-83
2021/11/21 10:07:41;;;;;;;9.55;1.00;;;9.40;99.90;;;7.82;100.00;100256.94;4942088;28;20046;-81
2021/11/21 10:10:29;;;;;;;9.90;0.93;;;9.40;99.90;;;7.76;100.00;100251.97;4972695;28;20046;-82
2021/11/21 10:12:59;;;;;;;16.73;1.45;;;9.40;99.90;;;7.75;100.00;100250.25;4934305;28;20058;-82
2021/11/21 10:15:27;;;;;;;10.55;0.88;;;9.20;99.90;;;7.71;100.00;100256.53;4941948;28;20033;-81
2021/11/21 10:18:02;;;;;;;13.90;1.10;;;9.20;99.90;;;7.69;100.00;100248.75;4971257;28;20061;-80
2021/11/21 10:20:51;;;;;;;5.43;0.60;;;9.20;99.90;;;7.66;100.00;100237.53;4970450;28;20488;-82
2021/11/21 10:23:56;;;;;;;8.15;0.88;;;9.20;99.90;;;7.60;100.00;100242.13;4956325;28;20115;-83